createdAt,value
2018-03-27T00:00:09.223Z,5.4
2018-03-27T00:03:09.134Z,5.6
2018-03-27T00:06:09.152Z,5.5
2018-03-27T00:09:09.145Z,5.4
2018-03-27T00:12:09.165Z,5.7
2018-03-27T00:15:09.116Z,5.9
2018-03-27T00:18:09.312Z,5.8
2018-03-27T00:21:09.237Z,6
2018-03-27T00:24:09.232Z,5.3
2018-03-27T00:27:09.228Z,5.4
2018-03-27T00:30:09.210Z,5.5
2018-03-27T00:33:09.213Z,5.5
2018-03-27T00:36:09.187Z,5.4
2018-03-27T00:39:09.195Z,5.5
2018-03-27T00:42:09.221Z,5.3
2018-03-27T00:45:09.266Z,5.6
2018-03-27T00:48:09.289Z,5.5
2018-03-27T00:51:09.220Z,5.7
2018-03-27T00:54:09.207Z,5.5
2018-03-27T00:57:09.178Z,5.8
2018-03-27T01:00:09.221Z,5.8
2018-03-27T01:03:09.239Z,5.5
2018-03-27T01:06:09.161Z,5.5
2018-03-27T01:09:09.222Z,5.6
2018-03-27T01:12:09.184Z,5.7
2018-03-27T01:15:09.225Z,5.7
2018-03-27T01:18:09.311Z,5.7
2018-03-27T01:21:09.220Z,5.4
2018-03-27T01:24:09.226Z,5.4
2018-03-27T01:27:09.261Z,5.3
2018-03-27T01:30:09.183Z,5.5
2018-03-27T01:33:09.175Z,5.7
2018-03-27T01:36:09.179Z,5.4
2018-03-27T01:39:09.308Z,5.4
2018-03-27T01:42:09.194Z,5.6
2018-03-27T01:45:09.195Z,5.6
2018-03-27T01:48:09.223Z,5.9
2018-03-27T01:51:09.174Z,5.7
2018-03-27T01:54:09.194Z,5.6
2018-03-27T01:57:09.181Z,5.7
2018-03-27T02:00:09.217Z,5.7
2018-03-27T02:03:09.189Z,5.5
2018-03-27T02:06:09.176Z,5.5
2018-03-27T02:09:09.261Z,5.3
2018-03-27T02:12:09.207Z,5.5
2018-03-27T02:15:09.164Z,5.5
2018-03-27T02:18:09.183Z,5.6
2018-03-27T02:21:09.169Z,5.3
2018-03-27T02:24:09.192Z,5.7
2018-03-27T02:27:09.172Z,5.7
2018-03-27T02:30:09.232Z,5.6
2018-03-27T02:33:09.180Z,5.4
2018-03-27T02:36:09.274Z,6
2018-03-27T02:39:09.232Z,5.4
2018-03-27T02:42:09.182Z,5.5
2018-03-27T02:45:09.214Z,5.3
2018-03-27T02:48:09.209Z,5.3
2018-03-27T02:51:09.175Z,5.4
2018-03-27T02:54:09.176Z,5.7
2018-03-27T02:57:09.179Z,5.4
2018-03-27T03:00:09.225Z,5.6
2018-03-27T03:03:09.198Z,5.4
2018-03-27T03:06:09.184Z,5.5
2018-03-27T03:09:09.197Z,5.4
2018-03-27T03:12:09.157Z,5.7
2018-03-27T03:15:09.148Z,5.7
2018-03-27T03:18:09.258Z,5.3
2018-03-27T03:21:09.177Z,5.7
2018-03-27T03:24:09.145Z,5.3
2018-03-27T03:27:09.173Z,5.5
2018-03-27T03:30:09.519Z,5.5
2018-03-27T03:33:09.142Z,5.4
2018-03-27T03:36:09.150Z,5.4
2018-03-27T03:39:09.154Z,5.4
2018-03-27T03:42:09.148Z,5.2
2018-03-27T03:45:09.175Z,5.6
2018-03-27T03:48:09.156Z,5.6
2018-03-27T03:51:09.145Z,5.1
2018-03-27T03:54:09.147Z,5.8
2018-03-27T03:57:09.133Z,5.6
2018-03-27T04:00:09.158Z,5.3
2018-03-27T04:03:09.149Z,4.7
2018-03-27T04:06:09.121Z,5.1
2018-03-27T04:09:09.190Z,5.3
2018-03-27T04:12:09.117Z,4.7
2018-03-27T04:15:09.205Z,4.8
2018-03-27T04:18:09.148Z,5.6
2018-03-27T04:21:09.198Z,4.8
2018-03-27T04:24:09.136Z,4.8
2018-03-27T04:27:09.164Z,4.8
2018-03-27T04:30:09.183Z,4.7
2018-03-27T04:33:09.144Z,4.8
2018-03-27T04:36:09.111Z,4.8
2018-03-27T04:39:09.111Z,4.6
2018-03-27T04:42:09.176Z,4.9
2018-03-27T04:45:09.131Z,4.6
2018-03-27T04:48:09.216Z,5
2018-03-27T04:51:09.122Z,4.9
2018-03-27T04:54:09.117Z,4.7
2018-03-27T04:57:09.108Z,5
2018-03-27T05:00:09.123Z,4.9
2018-03-27T05:03:09.117Z,4.8
2018-03-27T05:06:09.129Z,4.7
2018-03-27T05:09:09.171Z,4.6
2018-03-27T05:12:09.101Z,4.9
2018-03-27T05:15:09.160Z,5.3
2018-03-27T05:18:09.116Z,4.7
2018-03-27T05:21:09.149Z,4.6
2018-03-27T05:24:09.170Z,4.6
2018-03-27T05:27:09.124Z,4.6
2018-03-27T05:30:09.125Z,4.6
2018-03-27T05:33:09.124Z,4.9
2018-03-27T05:36:09.100Z,4.6
2018-03-27T05:39:09.138Z,5.9
2018-03-27T05:42:09.196Z,5.5
2018-03-27T05:45:09.162Z,8.5
2018-03-27T05:48:09.157Z,8.8
2018-03-27T05:51:09.179Z,10.2
2018-03-27T05:54:09.105Z,12.8
2018-03-27T05:57:09.107Z,10.7
2018-03-27T06:00:09.080Z,9.9
2018-03-27T06:03:09.113Z,7.8
2018-03-27T06:06:09.097Z,11.4
2018-03-27T06:09:09.112Z,7.4
2018-03-27T06:12:09.085Z,7.6
2018-03-27T06:15:09.103Z,6.2
2018-03-27T06:18:09.108Z,7.9
2018-03-27T06:21:09.123Z,6.6
2018-03-27T06:24:09.096Z,6
2018-03-27T06:27:09.103Z,6.1
2018-03-27T06:30:09.098Z,6
2018-03-27T06:33:09.108Z,5.4
2018-03-27T06:36:09.081Z,6.7
2018-03-27T06:39:09.084Z,5.9
2018-03-27T06:42:10.150Z,5.6
2018-03-27T06:45:10.132Z,5.7
2018-03-27T06:48:09.144Z,6.1
2018-03-27T06:51:09.066Z,6
2018-03-27T06:54:09.103Z,5.1
2018-03-27T06:57:09.109Z,5.4
2018-03-27T07:00:09.117Z,5.3
2018-03-27T07:03:09.223Z,5.4
2018-03-27T07:06:09.257Z,5.1
2018-03-27T07:09:09.231Z,5.1
2018-03-27T07:12:09.232Z,5.3
2018-03-27T07:15:09.305Z,4.9
2018-03-27T07:18:09.366Z,5.6
2018-03-27T07:21:09.162Z,4.8
2018-03-27T07:24:09.095Z,4.9
2018-03-27T07:27:09.083Z,4.5
2018-03-27T07:30:09.142Z,5
2018-03-27T07:33:09.133Z,6.9
2018-03-27T07:36:09.067Z,5.6
2018-03-27T07:39:09.146Z,5.9
2018-03-27T07:42:09.084Z,4.7
2018-03-27T07:45:09.098Z,5
2018-03-27T07:48:09.065Z,4.9
2018-03-27T07:51:09.068Z,7.5
2018-03-27T07:54:09.074Z,4.8
2018-03-27T07:57:09.075Z,5.9
2018-03-27T08:00:09.062Z,4.9
2018-03-27T08:03:09.075Z,5.2
2018-03-27T08:06:09.118Z,4.2
2018-03-27T08:09:09.067Z,5
2018-03-27T08:12:09.125Z,4.2
2018-03-27T08:15:09.083Z,4.4
2018-03-27T08:18:09.098Z,7
2018-03-27T08:21:09.104Z,5.6
2018-03-27T08:24:10.745Z,5.5
2018-03-27T08:27:09.085Z,7
2018-03-27T08:30:09.059Z,5.9
2018-03-27T08:33:09.104Z,8.1
2018-03-27T08:36:09.042Z,6.2
2018-03-27T08:39:09.390Z,6.8
2018-03-27T08:42:09.919Z,6.3
2018-03-27T08:45:09.052Z,5.9
2018-03-27T08:48:09.160Z,5.5
2018-03-27T08:51:09.045Z,6.3
2018-03-27T08:54:09.430Z,7.4
2018-03-27T08:57:09.052Z,9
2018-03-27T09:00:09.058Z,6.8
2018-03-27T09:03:09.050Z,6.3
2018-03-27T09:06:09.026Z,6.9
2018-03-27T09:09:09.214Z,7.2
2018-03-27T09:12:09.848Z,4.2
2018-03-27T09:15:09.412Z,4.9
2018-03-27T09:18:09.040Z,4.8
2018-03-27T09:21:09.156Z,4.4
2018-03-27T09:24:09.081Z,5.5
2018-03-27T09:27:09.038Z,4
2018-03-27T09:30:09.024Z,5
2018-03-27T09:33:09.065Z,4.5
2018-03-27T09:36:09.044Z,5.3
2018-03-27T09:39:09.241Z,4.3
2018-03-27T09:42:09.097Z,4.4
2018-03-27T09:45:09.025Z,4.2
2018-03-27T09:48:09.270Z,5.5
2018-03-27T09:51:09.069Z,6
2018-03-27T09:54:09.093Z,4.4
2018-03-27T09:57:09.035Z,4.3
2018-03-27T10:00:09.045Z,4.1
2018-03-27T10:03:09.047Z,4
2018-03-27T10:06:09.051Z,5.6
2018-03-27T10:09:09.065Z,5.2
2018-03-27T10:12:09.063Z,4.2
2018-03-27T10:15:09.017Z,4.4
2018-03-27T10:18:09.030Z,5.7
2018-03-27T10:21:09.041Z,6.6
2018-03-27T10:24:09.047Z,5.9
2018-03-27T10:27:09.056Z,5.8
2018-03-27T10:30:09.011Z,4.2
2018-03-27T10:33:09.108Z,4.1
2018-03-27T10:36:09.027Z,4.2
2018-03-27T10:39:09.033Z,3.9
2018-03-27T10:42:09.050Z,5.1
2018-03-27T10:45:09.024Z,5.2
2018-03-27T10:48:09.005Z,9.2
2018-03-27T10:51:09.050Z,9.9
2018-03-27T10:55:41.893Z,7.4
2018-03-27T10:58:41.410Z,8.6
2018-03-27T11:01:41.398Z,5.7
2018-03-27T11:04:41.512Z,6.6
2018-03-27T11:07:41.459Z,7.1
2018-03-27T11:10:41.442Z,8.6
2018-03-27T11:13:41.644Z,6.7
2018-03-27T11:16:41.503Z,6.6
2018-03-27T11:32:13.393Z,4.5
2018-03-27T11:35:13.344Z,6.2
2018-03-27T11:38:13.339Z,7.1
2018-03-27T11:41:13.334Z,4.8
2018-03-27T11:44:13.326Z,5.9
2018-03-27T11:47:13.328Z,5.1
2018-03-27T11:50:13.334Z,5.2
2018-03-27T11:53:13.320Z,4.3
2018-03-27T11:56:13.356Z,4.3
2018-03-27T11:59:13.392Z,4.4
2018-03-27T12:02:13.337Z,6
2018-03-27T12:05:13.601Z,4.1
2018-03-27T12:08:13.329Z,4.4
2018-03-27T12:11:13.351Z,4.2
2018-03-27T12:14:13.342Z,3.6
2018-03-27T12:17:13.307Z,3.7
2018-03-27T12:20:13.354Z,5.8
2018-03-27T12:23:13.306Z,4
2018-03-27T12:26:13.344Z,4.4
2018-03-27T12:29:13.335Z,5
2018-03-27T12:32:13.351Z,5.9
2018-03-27T12:35:13.291Z,3.9
2018-03-27T12:38:13.341Z,4.8
2018-03-27T12:41:13.304Z,5
2018-03-27T12:44:13.323Z,4.5
2018-03-27T12:47:13.312Z,4.4
2018-03-27T12:50:13.319Z,3.3
2018-03-27T12:53:13.790Z,5.5
2018-03-27T12:56:13.374Z,3.5
2018-03-27T12:59:13.357Z,5.2
2018-03-27T13:02:13.320Z,3.2
2018-03-27T13:05:13.329Z,3
2018-03-27T13:08:13.343Z,3.7
2018-03-27T13:11:13.500Z,3
2018-03-27T13:14:13.385Z,3.6
2018-03-27T13:17:13.277Z,3
2018-03-27T13:20:13.314Z,3
2018-03-27T13:23:13.277Z,3.8
2018-03-27T13:26:13.281Z,3.1
2018-03-27T13:29:13.303Z,3.1
2018-03-27T13:32:14.262Z,3
2018-03-27T13:35:13.325Z,3
2018-03-27T13:38:13.317Z,3
2018-03-27T13:41:13.394Z,3.5
2018-03-27T13:44:13.283Z,3.1
2018-03-27T13:47:13.335Z,3.9
2018-03-27T13:50:13.319Z,4.1
2018-03-27T13:53:13.288Z,2.7
2018-03-27T13:56:13.266Z,2.8
2018-03-27T13:59:13.262Z,2.8
2018-03-27T14:02:13.295Z,2.8
2018-03-27T14:05:13.388Z,3.1
2018-03-27T14:08:13.488Z,3.5
2018-03-27T14:11:13.504Z,3.9
2018-03-27T14:14:13.287Z,3.2
2018-03-27T14:17:13.301Z,2.7
2018-03-27T14:20:13.275Z,3
2018-03-27T14:23:13.265Z,2.8
2018-03-27T14:26:13.292Z,3.2
2018-03-27T14:29:13.275Z,3.2
2018-03-27T14:32:13.374Z,2.9
2018-03-27T14:35:13.318Z,2.6
2018-03-27T14:38:13.798Z,2.6
2018-03-27T14:41:13.286Z,4.1
2018-03-27T14:44:13.241Z,2.9
2018-03-27T14:47:13.270Z,2.7
2018-03-27T14:50:13.302Z,2.5
2018-03-27T14:53:13.268Z,2.5
2018-03-27T14:56:13.262Z,2.7
2018-03-27T14:59:13.255Z,2.7
2018-03-27T15:02:13.255Z,2.6
2018-03-27T15:05:13.308Z,2.9
2018-03-27T15:08:13.260Z,2.4
2018-03-27T15:11:13.246Z,2.7
2018-03-27T15:14:13.236Z,2.8
2018-03-27T15:17:13.263Z,2.5
2018-03-27T15:20:13.263Z,2.5
2018-03-27T15:23:13.233Z,2.6
2018-03-27T15:26:13.275Z,2.4
2018-03-27T15:29:13.225Z,2.6
2018-03-27T15:32:13.285Z,2.5
2018-03-27T15:35:13.282Z,2.5
2018-03-27T15:38:13.316Z,2.5
2018-03-27T15:41:13.256Z,2.4
2018-03-27T15:44:13.293Z,3.4
2018-03-27T15:47:13.256Z,8.7
2018-03-27T15:50:13.312Z,13.7
2018-03-27T15:53:13.237Z,13
2018-03-27T15:56:13.305Z,13.8
2018-03-27T15:59:13.216Z,13.4
2018-03-27T16:02:13.290Z,13.4
2018-03-27T16:05:13.286Z,13.6
2018-03-27T16:08:13.282Z,11.1
2018-03-27T16:11:13.242Z,9.4
2018-03-27T16:14:13.237Z,8.9
2018-03-27T16:17:13.261Z,8.9
2018-03-27T16:20:13.239Z,9.1
2018-03-27T16:23:13.245Z,11.5
2018-03-27T16:26:13.235Z,6.2
2018-03-27T16:29:13.221Z,6.6
2018-03-27T16:32:13.250Z,7.8
2018-03-27T16:35:13.269Z,6.8
2018-03-27T16:38:13.303Z,6.1
2018-03-27T16:41:13.249Z,6.2
2018-03-27T16:44:13.318Z,5.4
2018-03-27T16:47:13.242Z,5.2
2018-03-27T16:50:13.316Z,4.7
2018-03-27T16:53:13.296Z,6.8
2018-03-27T16:56:13.230Z,5.3
2018-03-27T16:59:13.238Z,4.8
2018-03-27T17:02:13.280Z,3.7
2018-03-27T17:05:13.253Z,4.2
2018-03-27T17:08:13.262Z,4.1
2018-03-27T17:11:13.249Z,4.3
2018-03-27T17:14:13.420Z,4.5
2018-03-27T17:17:13.266Z,4.4
2018-03-27T17:20:13.249Z,4.1
2018-03-27T17:23:13.372Z,4.1
2018-03-27T17:26:13.364Z,4.6
2018-03-27T17:29:13.247Z,4.9
2018-03-27T17:32:13.248Z,3.9
2018-03-27T17:35:13.221Z,3.9
2018-03-27T17:38:13.272Z,3
2018-03-27T17:41:13.246Z,3.1
2018-03-27T17:44:13.264Z,4.2
2018-03-27T17:47:13.294Z,3.1
2018-03-27T17:50:13.258Z,3.7
2018-03-27T17:53:13.238Z,4.2
2018-03-27T17:56:13.233Z,3.3
2018-03-27T17:59:13.216Z,3.3
2018-03-27T18:02:13.222Z,3
2018-03-27T18:05:13.244Z,4
2018-03-27T18:08:13.236Z,2.8
2018-03-27T18:11:13.218Z,2.9
2018-03-27T18:14:13.237Z,2.8
2018-03-27T18:17:13.258Z,2.9
2018-03-27T18:20:13.207Z,7.2
2018-03-27T18:23:13.239Z,3.9
2018-03-27T18:26:13.230Z,4.7
2018-03-27T18:29:13.288Z,4
2018-03-27T18:32:13.226Z,2.7
2018-03-27T18:35:13.246Z,3.4
2018-03-27T18:38:13.212Z,4.3
2018-03-27T18:41:13.296Z,4
2018-03-27T18:44:13.217Z,4.2
2018-03-27T18:47:13.275Z,5.9
2018-03-27T18:50:13.199Z,9.8
2018-03-27T18:53:13.213Z,7.4
2018-03-27T18:56:13.232Z,5.6
2018-03-27T18:59:13.244Z,5.9
2018-03-27T19:02:13.223Z,5.5
2018-03-27T19:05:13.212Z,6.3
2018-03-27T19:08:13.203Z,5.1
2018-03-27T19:11:13.285Z,4.1
2018-03-27T19:14:13.366Z,6
2018-03-27T19:17:13.218Z,3.6
2018-03-27T19:20:13.216Z,3.1
2018-03-27T19:23:14.498Z,4.2
2018-03-27T19:26:13.385Z,6.9
2018-03-27T19:29:13.177Z,7.8
2018-03-27T19:32:13.188Z,5.1
2018-03-27T19:35:13.376Z,8.1
2018-03-27T19:38:13.433Z,4.9
2018-03-27T19:41:13.720Z,4.5
2018-03-27T19:44:13.197Z,6.4
2018-03-27T19:47:13.244Z,6.3
2018-03-27T19:50:13.299Z,3.9
2018-03-27T19:53:13.191Z,5.7
2018-03-27T19:56:13.196Z,4.1
2018-03-27T19:59:13.221Z,4.6
2018-03-27T20:02:13.302Z,5.5
2018-03-27T20:05:13.234Z,6.1
2018-03-27T20:10:46.009Z,9.5
2018-03-27T20:13:45.954Z,6.1
2018-03-27T20:16:45.968Z,5.3
2018-03-27T20:19:45.969Z,4.5
2018-03-27T20:22:45.954Z,6.1
2018-03-27T20:25:45.973Z,4.4
2018-03-27T20:28:46.015Z,5
2018-03-27T20:31:45.969Z,5.2
2018-03-27T20:34:45.995Z,7.3
2018-03-27T20:37:45.959Z,4.5
2018-03-27T20:40:45.974Z,3.6
2018-03-27T20:43:45.980Z,4.7
2018-03-27T20:46:45.942Z,3.6
2018-03-27T20:49:45.956Z,4.3
2018-03-27T20:52:45.986Z,4.3
2018-03-27T20:55:45.979Z,3.8
2018-03-27T20:58:45.937Z,4.6
2018-03-27T21:01:45.942Z,3.6
2018-03-27T21:04:45.954Z,4.1
2018-03-27T21:07:46.079Z,3.4
2018-03-27T21:10:45.924Z,4.5
2018-03-27T21:13:45.965Z,3.5
2018-03-27T21:16:46.029Z,3.9
2018-03-27T21:19:45.939Z,3.6
2018-03-27T21:22:45.932Z,3.4
2018-03-27T21:25:46.022Z,3.6
2018-03-27T21:28:45.954Z,4.4
2018-03-27T21:31:46.071Z,3.7
2018-03-27T21:34:45.955Z,4.2
2018-03-27T21:37:45.953Z,3.5
2018-03-27T21:40:45.934Z,3.3
2018-03-27T21:43:45.928Z,3.7
2018-03-27T21:46:45.964Z,6.4
2018-03-27T21:49:46.024Z,3.9
2018-03-27T21:52:45.999Z,3.3
2018-03-27T21:55:45.949Z,5
2018-03-27T21:58:45.912Z,3.8
2018-03-27T22:01:45.917Z,4.5
2018-03-27T22:04:45.925Z,3.6
2018-03-27T22:07:45.923Z,4.4
2018-03-27T22:10:45.998Z,3
2018-03-27T22:13:46.035Z,3.5
2018-03-27T22:16:45.988Z,3.2
2018-03-27T22:19:45.942Z,3.4
2018-03-27T22:22:45.934Z,3.8
2018-03-27T22:25:45.914Z,3
2018-03-27T22:28:45.936Z,3.5
2018-03-27T22:31:45.913Z,2.9
2018-03-27T22:34:45.950Z,3
2018-03-27T22:37:45.929Z,3.1
2018-03-27T22:40:45.914Z,3
2018-03-27T22:43:45.982Z,2.8
2018-03-27T22:46:45.927Z,3.9
2018-03-27T22:49:45.897Z,2.9
2018-03-27T22:52:45.918Z,3
2018-03-27T22:55:45.911Z,3.8
2018-03-27T22:58:45.919Z,3
2018-03-27T23:01:45.918Z,4
2018-03-27T23:04:45.908Z,2.9
2018-03-27T23:07:46.080Z,2.8
2018-03-27T23:10:45.951Z,3.3
2018-03-27T23:13:45.913Z,2.8
2018-03-27T23:16:45.929Z,2.9
2018-03-27T23:19:45.927Z,2.8
2018-03-27T23:22:45.936Z,3.4
2018-03-27T23:25:45.900Z,2.7
2018-03-27T23:28:45.893Z,2.7
2018-03-27T23:31:45.903Z,2.7
2018-03-27T23:34:45.922Z,2.9
2018-03-27T23:37:45.935Z,3
2018-03-27T23:40:45.960Z,2.7
2018-03-27T23:43:45.922Z,3.8
2018-03-27T23:46:45.915Z,2.7
2018-03-27T23:49:45.909Z,2.6
2018-03-27T23:52:45.983Z,2.5
2018-03-27T23:55:45.916Z,2.6
2018-03-27T23:58:45.917Z,3.1
